sensor_id;sensor_type;location;lat;lon;timestamp;P1;durP1;ratioP1;P2;durP2;ratioP2
57023;SDS011;42916;54.346;18.562;2022-08-02T00:00:15;3.20;;;2.30;;
57023;SDS011;42916;54.346;18.562;2022-08-02T00:03:02;3.40;;;2.30;;
57023;SDS011;42916;54.346;18.562;2022-08-02T00:05:28;2.80;;;2.50;;
57023;SDS011;42916;54.346;18.562;2022-08-02T00:07:55;5.20;;;2.60;;
57023;SDS011;42916;54.346;18.562;2022-08-02T00:10:21;4.80;;;2.80;;
57023;SDS011;42916;54.346;18.562;2022-08-02T00:12:48;3.40;;;2.50;;
57023;SDS011;42916;54.346;18.562;2022-08-02T00:15:15;4.10;;;2.80;;
57023;SDS011;42916;54.346;18.562;2022-08-02T00:17:42;5.20;;;2.60;;
57023;SDS011;42916;54.346;18.562;2022-08-02T00:20:09;3.20;;;2.60;;
57023;SDS011;42916;54.346;18.562;2022-08-02T00:22:37;3.10;;;2.30;;
57023;SDS011;42916;54.346;18.562;2022-08-02T00:25:04;5.10;;;2.70;;
57023;SDS011;42916;54.346;18.562;2022-08-02T00:27:31;3.20;;;2.40;;
57023;SDS011;42916;54.346;18.562;2022-08-02T00:29:58;3.70;;;2.90;;
57023;SDS011;42916;54.346;18.562;2022-08-02T00:32:24;5.10;;;3.40;;
57023;SDS011;42916;54.346;18.562;2022-08-02T00:34:51;3.60;;;3.00;;
57023;SDS011;42916;54.346;18.562;2022-08-02T00:37:18;4.60;;;3.20;;
57023;SDS011;42916;54.346;18.562;2022-08-02T00:39:44;5.00;;;2.90;;
57023;SDS011;42916;54.346;18.562;2022-08-02T00:42:12;6.40;;;3.50;;
57023;SDS011;42916;54.346;18.562;2022-08-02T00:44:40;6.10;;;3.20;;
57023;SDS011;42916;54.346;18.562;2022-08-02T00:47:07;3.50;;;3.00;;
57023;SDS011;42916;54.346;18.562;2022-08-02T00:49:34;4.20;;;2.90;;
57023;SDS011;42916;54.346;18.562;2022-08-02T00:52:00;4.30;;;3.30;;
57023;SDS011;42916;54.346;18.562;2022-08-02T00:54:27;4.90;;;3.60;;
57023;SDS011;42916;54.346;18.562;2022-08-02T00:56:53;5.90;;;3.50;;
57023;SDS011;42916;54.346;18.562;2022-08-02T00:59:20;4.60;;;3.70;;
57023;SDS011;42916;54.346;18.562;2022-08-02T01:01:47;5.40;;;3.50;;
57023;SDS011;42916;54.346;18.562;2022-08-02T01:04:13;5.50;;;3.60;;
57023;SDS011;42916;54.346;18.562;2022-08-02T01:06:40;3.80;;;3.10;;
57023;SDS011;42916;54.346;18.562;2022-08-02T01:09:08;5.30;;;4.00;;
57023;SDS011;42916;54.346;18.562;2022-08-02T01:11:35;6.10;;;4.20;;
57023;SDS011;42916;54.346;18.562;2022-08-02T01:14:08;5.70;;;4.30;;
57023;SDS011;42916;54.346;18.562;2022-08-02T01:16:38;4.40;;;3.90;;
57023;SDS011;42916;54.346;18.562;2022-08-02T01:27:39;7.00;;;5.40;;
57023;SDS011;42916;54.346;18.562;2022-08-02T01:30:16;11.50;;;4.90;;
57023;SDS011;42916;54.346;18.562;2022-08-02T01:32:45;9.00;;;5.30;;
57023;SDS011;42916;54.346;18.562;2022-08-02T01:35:20;7.10;;;4.50;;
57023;SDS011;42916;54.346;18.562;2022-08-02T01:37:55;8.40;;;4.90;;
57023;SDS011;42916;54.346;18.562;2022-08-02T01:40:30;6.90;;;4.90;;
57023;SDS011;42916;54.346;18.562;2022-08-02T01:43:01;7.20;;;5.00;;
57023;SDS011;42916;54.346;18.562;2022-08-02T01:45:29;5.70;;;4.40;;
57023;SDS011;42916;54.346;18.562;2022-08-02T01:47:59;6.10;;;4.80;;
57023;SDS011;42916;54.346;18.562;2022-08-02T01:50:28;8.30;;;4.80;;
57023;SDS011;42916;54.346;18.562;2022-08-02T01:53:00;6.70;;;5.10;;
57023;SDS011;42916;54.346;18.562;2022-08-02T01:55:32;6.40;;;4.30;;
57023;SDS011;42916;54.346;18.562;2022-08-02T01:58:03;6.80;;;5.00;;
57023;SDS011;42916;54.346;18.562;2022-08-02T02:00:31;11.30;;;5.50;;
57023;SDS011;42916;54.346;18.562;2022-08-02T02:03:01;5.30;;;4.50;;
57023;SDS011;42916;54.346;18.562;2022-08-02T02:05:31;6.20;;;4.60;;
57023;SDS011;42916;54.346;18.562;2022-08-02T02:08:03;8.10;;;5.50;;
57023;SDS011;42916;54.346;18.562;2022-08-02T02:10:33;6.80;;;5.10;;
57023;SDS011;42916;54.346;18.562;2022-08-02T02:13:04;11.50;;;5.10;;
57023;SDS011;42916;54.346;18.562;2022-08-02T02:15:34;6.30;;;4.70;;
57023;SDS011;42916;54.346;18.562;2022-08-02T02:18:04;7.30;;;4.80;;
57023;SDS011;42916;54.346;18.562;2022-08-02T02:20:33;7.60;;;5.00;;
57023;SDS011;42916;54.346;18.562;2022-08-02T02:22:59;6.60;;;4.70;;
57023;SDS011;42916;54.346;18.562;2022-08-02T02:25:26;5.70;;;4.40;;
57023;SDS011;42916;54.346;18.562;2022-08-02T02:28:00;8.00;;;4.90;;
57023;SDS011;42916;54.346;18.562;2022-08-02T02:30:30;6.20;;;5.50;;
57023;SDS011;42916;54.346;18.562;2022-08-02T02:33:00;7.50;;;4.70;;
57023;SDS011;42916;54.346;18.562;2022-08-02T02:35:30;7.80;;;4.70;;
57023;SDS011;42916;54.346;18.562;2022-08-02T02:37:59;6.70;;;5.10;;
57023;SDS011;42916;54.346;18.562;2022-08-02T02:40:30;5.40;;;4.40;;
57023;SDS011;42916;54.346;18.562;2022-08-02T02:42:58;5.90;;;5.30;;
57023;SDS011;42916;54.346;18.562;2022-08-02T02:45:27;6.80;;;5.10;;
57023;SDS011;42916;54.346;18.562;2022-08-02T02:47:55;7.00;;;4.80;;
57023;SDS011;42916;54.346;18.562;2022-08-02T02:50:23;5.60;;;4.70;;
57023;SDS011;42916;54.346;18.562;2022-08-02T02:52:50;5.50;;;4.80;;
57023;SDS011;42916;54.346;18.562;2022-08-02T02:55:18;7.10;;;4.60;;
57023;SDS011;42916;54.346;18.562;2022-08-02T02:57:46;6.60;;;4.50;;
57023;SDS011;42916;54.346;18.562;2022-08-02T03:00:14;5.70;;;4.00;;
57023;SDS011;42916;54.346;18.562;2022-08-02T03:02:41;5.90;;;4.60;;
57023;SDS011;42916;54.346;18.562;2022-08-02T03:05:10;10.50;;;4.90;;
57023;SDS011;42916;54.346;18.562;2022-08-02T03:07:37;5.40;;;4.10;;
57023;SDS011;42916;54.346;18.562;2022-08-02T03:10:05;7.80;;;4.50;;
57023;SDS011;42916;54.346;18.562;2022-08-02T03:12:33;6.00;;;4.20;;
57023;SDS011;42916;54.346;18.562;2022-08-02T03:15:03;8.40;;;4.50;;
57023;SDS011;42916;54.346;18.562;2022-08-02T03:17:36;7.00;;;3.80;;
57023;SDS011;42916;54.346;18.562;2022-08-02T03:20:08;7.20;;;3.90;;
57023;SDS011;42916;54.346;18.562;2022-08-02T03:22:35;6.60;;;3.60;;
57023;SDS011;42916;54.346;18.562;2022-08-02T03:25:02;4.90;;;3.30;;
57023;SDS011;42916;54.346;18.562;2022-08-02T03:27:29;6.30;;;3.80;;
57023;SDS011;42916;54.346;18.562;2022-08-02T03:29:55;9.00;;;3.80;;
57023;SDS011;42916;54.346;18.562;2022-08-02T03:32:22;4.30;;;3.50;;
57023;SDS011;42916;54.346;18.562;2022-08-02T03:34:49;5.30;;;3.50;;
57023;SDS011;42916;54.346;18.562;2022-08-02T03:37:16;5.90;;;3.20;;
57023;SDS011;42916;54.346;18.562;2022-08-02T03:39:44;8.00;;;3.80;;
57023;SDS011;42916;54.346;18.562;2022-08-02T03:42:11;9.40;;;3.70;;
57023;SDS011;42916;54.346;18.562;2022-08-02T03:44:38;7.30;;;4.10;;
57023;SDS011;42916;54.346;18.562;2022-08-02T03:47:06;7.90;;;3.60;;
57023;SDS011;42916;54.346;18.562;2022-08-02T03:49:33;6.40;;;3.30;;
57023;SDS011;42916;54.346;18.562;2022-08-02T03:52:02;6.50;;;3.20;;
57023;SDS011;42916;54.346;18.562;2022-08-02T03:54:28;7.90;;;4.10;;
57023;SDS011;42916;54.346;18.562;2022-08-02T03:56:55;6.70;;;3.50;;
57023;SDS011;42916;54.346;18.562;2022-08-02T03:59:22;6.20;;;3.00;;
57023;SDS011;42916;54.346;18.562;2022-08-02T04:01:48;6.70;;;3.50;;
57023;SDS011;42916;54.346;18.562;2022-08-02T04:04:15;11.50;;;3.60;;
57023;SDS011;42916;54.346;18.562;2022-08-02T04:06:41;10.10;;;3.60;;
57023;SDS011;42916;54.346;18.562;2022-08-02T04:09:08;11.20;;;4.00;;
57023;SDS011;42916;54.346;18.562;2022-08-02T04:11:35;7.60;;;2.90;;
57023;SDS011;42916;54.346;18.562;2022-08-02T04:14:09;9.60;;;3.10;;
57023;SDS011;42916;54.346;18.562;2022-08-02T04:16:38;6.90;;;2.80;;
57023;SDS011;42916;54.346;18.562;2022-08-02T04:19:10;7.00;;;2.80;;
57023;SDS011;42916;54.346;18.562;2022-08-02T04:21:41;8.40;;;2.70;;
57023;SDS011;42916;54.346;18.562;2022-08-02T04:24:09;9.00;;;3.20;;
57023;SDS011;42916;54.346;18.562;2022-08-02T04:26:38;5.80;;;2.60;;
57023;SDS011;42916;54.346;18.562;2022-08-02T04:29:09;8.80;;;3.10;;
57023;SDS011;42916;54.346;18.562;2022-08-02T04:31:37;8.50;;;2.40;;
57023;SDS011;42916;54.346;18.562;2022-08-02T04:34:05;7.70;;;2.90;;
57023;SDS011;42916;54.346;18.562;2022-08-02T04:36:32;6.70;;;2.90;;
57023;SDS011;42916;54.346;18.562;2022-08-02T04:39:00;7.40;;;3.00;;
57023;SDS011;42916;54.346;18.562;2022-08-02T04:41:37;7.00;;;2.90;;
57023;SDS011;42916;54.346;18.562;2022-08-02T04:44:07;7.20;;;2.60;;
57023;SDS011;42916;54.346;18.562;2022-08-02T04:46:34;5.30;;;2.10;;
57023;SDS011;42916;54.346;18.562;2022-08-02T04:49:02;7.40;;;2.80;;
57023;SDS011;42916;54.346;18.562;2022-08-02T04:51:28;6.90;;;2.90;;
57023;SDS011;42916;54.346;18.562;2022-08-02T04:53:55;7.20;;;2.80;;
57023;SDS011;42916;54.346;18.562;2022-08-02T04:56:21;7.80;;;2.60;;
57023;SDS011;42916;54.346;18.562;2022-08-02T04:58:48;7.60;;;2.70;;
57023;SDS011;42916;54.346;18.562;2022-08-02T05:01:14;9.00;;;3.00;;
57023;SDS011;42916;54.346;18.562;2022-08-02T05:03:41;8.60;;;2.50;;
57023;SDS011;42916;54.346;18.562;2022-08-02T05:06:08;10.50;;;2.80;;
57023;SDS011;42916;54.346;18.562;2022-08-02T05:08:34;8.30;;;2.70;;
57023;SDS011;42916;54.346;18.562;2022-08-02T05:11:01;9.10;;;2.80;;
57023;SDS011;42916;54.346;18.562;2022-08-02T05:13:27;8.80;;;2.70;;
57023;SDS011;42916;54.346;18.562;2022-08-02T05:15:54;9.60;;;2.60;;
57023;SDS011;42916;54.346;18.562;2022-08-02T05:18:20;7.60;;;2.00;;
57023;SDS011;42916;54.346;18.562;2022-08-02T05:20:47;3.60;;;1.80;;
57023;SDS011;42916;54.346;18.562;2022-08-02T05:23:13;5.00;;;1.90;;
57023;SDS011;42916;54.346;18.562;2022-08-02T05:25:40;3.70;;;1.80;;
57023;SDS011;42916;54.346;18.562;2022-08-02T05:28:06;8.00;;;2.30;;
57023;SDS011;42916;54.346;18.562;2022-08-02T05:30:33;7.00;;;2.10;;
57023;SDS011;42916;54.346;18.562;2022-08-02T05:32:59;6.40;;;2.20;;
57023;SDS011;42916;54.346;18.562;2022-08-02T05:35:26;7.10;;;1.80;;
57023;SDS011;42916;54.346;18.562;2022-08-02T05:37:52;6.50;;;1.70;;
57023;SDS011;42916;54.346;18.562;2022-08-02T05:40:19;7.90;;;2.00;;
57023;SDS011;42916;54.346;18.562;2022-08-02T05:42:45;8.90;;;1.70;;
57023;SDS011;42916;54.346;18.562;2022-08-02T05:45:12;8.80;;;2.00;;
57023;SDS011;42916;54.346;18.562;2022-08-02T05:47:39;5.80;;;2.00;;
57023;SDS011;42916;54.346;18.562;2022-08-02T05:50:06;8.90;;;1.90;;
57023;SDS011;42916;54.346;18.562;2022-08-02T05:52:44;7.00;;;1.50;;
57023;SDS011;42916;54.346;18.562;2022-08-02T05:55:17;4.40;;;1.40;;
57023;SDS011;42916;54.346;18.562;2022-08-02T06:00:54;7.10;;;1.80;;
57023;SDS011;42916;54.346;18.562;2022-08-02T06:03:25;7.90;;;1.80;;
57023;SDS011;42916;54.346;18.562;2022-08-02T06:06:04;8.00;;;1.60;;
57023;SDS011;42916;54.346;18.562;2022-08-02T06:08:37;5.80;;;1.60;;
57023;SDS011;42916;54.346;18.562;2022-08-02T06:11:08;3.50;;;1.50;;
57023;SDS011;42916;54.346;18.562;2022-08-02T06:13:40;7.70;;;1.60;;
57023;SDS011;42916;54.346;18.562;2022-08-02T06:16:08;10.80;;;1.80;;
57023;SDS011;42916;54.346;18.562;2022-08-02T06:18:35;8.50;;;1.70;;
57023;SDS011;42916;54.346;18.562;2022-08-02T06:21:03;8.60;;;1.80;;
57023;SDS011;42916;54.346;18.562;2022-08-02T06:23:31;5.50;;;1.80;;
57023;SDS011;42916;54.346;18.562;2022-08-02T06:25:58;6.80;;;1.50;;
57023;SDS011;42916;54.346;18.562;2022-08-02T06:28:25;6.30;;;1.80;;
57023;SDS011;42916;54.346;18.562;2022-08-02T06:30:52;6.20;;;1.60;;
57023;SDS011;42916;54.346;18.562;2022-08-02T06:33:20;6.20;;;1.50;;
57023;SDS011;42916;54.346;18.562;2022-08-02T06:35:51;8.10;;;1.80;;
57023;SDS011;42916;54.346;18.562;2022-08-02T06:38:27;9.60;;;1.40;;
57023;SDS011;42916;54.346;18.562;2022-08-02T06:41:02;3.00;;;1.40;;
57023;SDS011;42916;54.346;18.562;2022-08-02T06:43:53;5.90;;;1.50;;
57023;SDS011;42916;54.346;18.562;2022-08-02T06:46:25;4.70;;;1.50;;
57023;SDS011;42916;54.346;18.562;2022-08-02T06:48:53;7.30;;;2.00;;
57023;SDS011;42916;54.346;18.562;2022-08-02T06:51:20;4.90;;;1.30;;
57023;SDS011;42916;54.346;18.562;2022-08-02T06:53:47;4.40;;;1.30;;
57023;SDS011;42916;54.346;18.562;2022-08-02T06:56:14;2.50;;;1.10;;
57023;SDS011;42916;54.346;18.562;2022-08-02T06:58:41;5.20;;;1.40;;
57023;SDS011;42916;54.346;18.562;2022-08-02T07:01:08;6.90;;;1.50;;
57023;SDS011;42916;54.346;18.562;2022-08-02T07:03:35;6.90;;;1.10;;
57023;SDS011;42916;54.346;18.562;2022-08-02T07:06:03;6.70;;;1.40;;
57023;SDS011;42916;54.346;18.562;2022-08-02T07:08:31;4.30;;;1.10;;
57023;SDS011;42916;54.346;18.562;2022-08-02T07:10:58;3.80;;;1.30;;
57023;SDS011;42916;54.346;18.562;2022-08-02T07:13:27;4.60;;;1.30;;
57023;SDS011;42916;54.346;18.562;2022-08-02T07:15:54;4.70;;;1.30;;
57023;SDS011;42916;54.346;18.562;2022-08-02T07:18:22;6.00;;;1.40;;
57023;SDS011;42916;54.346;18.562;2022-08-02T07:20:50;4.50;;;1.20;;
57023;SDS011;42916;54.346;18.562;2022-08-02T07:23:17;8.90;;;1.60;;
57023;SDS011;42916;54.346;18.562;2022-08-02T07:25:44;4.50;;;1.30;;
57023;SDS011;42916;54.346;18.562;2022-08-02T07:28:11;4.50;;;1.20;;
57023;SDS011;42916;54.346;18.562;2022-08-02T07:30:41;3.70;;;1.50;;
57023;SDS011;42916;54.346;18.562;2022-08-02T07:33:08;7.60;;;1.50;;
57023;SDS011;42916;54.346;18.562;2022-08-02T07:35:35;7.30;;;1.20;;
57023;SDS011;42916;54.346;18.562;2022-08-02T07:38:02;3.30;;;1.30;;
57023;SDS011;42916;54.346;18.562;2022-08-02T07:40:29;5.10;;;1.20;;
57023;SDS011;42916;54.346;18.562;2022-08-02T07:42:56;8.40;;;1.50;;
57023;SDS011;42916;54.346;18.562;2022-08-02T07:45:23;4.80;;;1.00;;
57023;SDS011;42916;54.346;18.562;2022-08-02T07:47:51;4.20;;;1.10;;
57023;SDS011;42916;54.346;18.562;2022-08-02T07:50:18;5.30;;;1.20;;
57023;SDS011;42916;54.346;18.562;2022-08-02T07:52:46;4.60;;;1.00;;
57023;SDS011;42916;54.346;18.562;2022-08-02T07:55:13;7.00;;;1.40;;
57023;SDS011;42916;54.346;18.562;2022-08-02T07:57:43;5.70;;;1.30;;
57023;SDS011;42916;54.346;18.562;2022-08-02T08:00:11;5.30;;;1.50;;
57023;SDS011;42916;54.346;18.562;2022-08-02T08:02:39;5.10;;;1.00;;
57023;SDS011;42916;54.346;18.562;2022-08-02T08:05:06;6.50;;;1.40;;
57023;SDS011;42916;54.346;18.562;2022-08-02T08:07:33;5.30;;;1.30;;
57023;SDS011;42916;54.346;18.562;2022-08-02T08:10:00;11.50;;;2.50;;
57023;SDS011;42916;54.346;18.562;2022-08-02T08:12:27;8.50;;;1.60;;
57023;SDS011;42916;54.346;18.562;2022-08-02T08:14:54;5.30;;;1.20;;
57023;SDS011;42916;54.346;18.562;2022-08-02T08:17:21;7.70;;;1.50;;
57023;SDS011;42916;54.346;18.562;2022-08-02T08:19:47;5.40;;;1.10;;
57023;SDS011;42916;54.346;18.562;2022-08-02T08:22:14;5.30;;;1.20;;
57023;SDS011;42916;54.346;18.562;2022-08-02T08:24:41;4.30;;;1.20;;
57023;SDS011;42916;54.346;18.562;2022-08-02T08:27:07;4.20;;;1.10;;
57023;SDS011;42916;54.346;18.562;2022-08-02T08:29:42;7.40;;;1.30;;
57023;SDS011;42916;54.346;18.562;2022-08-02T08:32:10;6.80;;;1.30;;
57023;SDS011;42916;54.346;18.562;2022-08-02T08:37:05;6.50;;;1.30;;
57023;SDS011;42916;54.346;18.562;2022-08-02T08:39:31;7.60;;;1.40;;
57023;SDS011;42916;54.346;18.562;2022-08-02T08:41:58;3.10;;;1.10;;
57023;SDS011;42916;54.346;18.562;2022-08-02T08:44:25;6.30;;;1.30;;
57023;SDS011;42916;54.346;18.562;2022-08-02T08:46:52;4.70;;;1.10;;
57023;SDS011;42916;54.346;18.562;2022-08-02T08:49:25;3.90;;;1.00;;
57023;SDS011;42916;54.346;18.562;2022-08-02T08:51:56;4.80;;;0.70;;
57023;SDS011;42916;54.346;18.562;2022-08-02T08:54:28;5.80;;;1.10;;
57023;SDS011;42916;54.346;18.562;2022-08-02T08:56:56;5.90;;;1.10;;
57023;SDS011;42916;54.346;18.562;2022-08-02T08:59:24;4.20;;;0.90;;
57023;SDS011;42916;54.346;18.562;2022-08-02T09:01:51;4.50;;;0.90;;
57023;SDS011;42916;54.346;18.562;2022-08-02T09:04:18;5.50;;;1.10;;
57023;SDS011;42916;54.346;18.562;2022-08-02T09:06:45;7.80;;;1.20;;
57023;SDS011;42916;54.346;18.562;2022-08-02T09:09:11;1.90;;;0.80;;
57023;SDS011;42916;54.346;18.562;2022-08-02T09:11:38;4.80;;;1.00;;
57023;SDS011;42916;54.346;18.562;2022-08-02T09:14:05;4.40;;;0.90;;
57023;SDS011;42916;54.346;18.562;2022-08-02T09:16:32;8.20;;;1.30;;
57023;SDS011;42916;54.346;18.562;2022-08-02T09:19:15;4.70;;;1.10;;
57023;SDS011;42916;54.346;18.562;2022-08-02T09:21:44;5.90;;;1.10;;
57023;SDS011;42916;54.346;18.562;2022-08-02T09:24:20;4.10;;;1.10;;
57023;SDS011;42916;54.346;18.562;2022-08-02T09:26:49;4.40;;;1.00;;
57023;SDS011;42916;54.346;18.562;2022-08-02T09:29:21;4.00;;;0.90;;
57023;SDS011;42916;54.346;18.562;2022-08-02T09:31:48;5.20;;;1.30;;
57023;SDS011;42916;54.346;18.562;2022-08-02T09:34:16;4.50;;;1.30;;
57023;SDS011;42916;54.346;18.562;2022-08-02T09:36:43;5.50;;;0.90;;
57023;SDS011;42916;54.346;18.562;2022-08-02T09:41:40;4.50;;;0.90;;
57023;SDS011;42916;54.346;18.562;2022-08-02T09:44:09;3.30;;;0.90;;
57023;SDS011;42916;54.346;18.562;2022-08-02T09:46:41;3.60;;;1.00;;
57023;SDS011;42916;54.346;18.562;2022-08-02T09:49:14;3.70;;;0.90;;
57023;SDS011;42916;54.346;18.562;2022-08-02T09:54:18;5.30;;;1.00;;
57023;SDS011;42916;54.346;18.562;2022-08-02T09:56:51;3.40;;;0.80;;
57023;SDS011;42916;54.346;18.562;2022-08-02T09:59:20;3.40;;;0.80;;
57023;SDS011;42916;54.346;18.562;2022-08-02T10:01:50;4.70;;;0.80;;
57023;SDS011;42916;54.346;18.562;2022-08-02T10:04:22;2.50;;;0.70;;
57023;SDS011;42916;54.346;18.562;2022-08-02T10:06:50;3.00;;;0.80;;
57023;SDS011;42916;54.346;18.562;2022-08-02T10:09:20;5.50;;;1.10;;
57023;SDS011;42916;54.346;18.562;2022-08-02T10:11:48;4.80;;;1.00;;
57023;SDS011;42916;54.346;18.562;2022-08-02T10:14:14;3.70;;;1.10;;
57023;SDS011;42916;54.346;18.562;2022-08-02T10:16:42;6.20;;;1.30;;
57023;SDS011;42916;54.346;18.562;2022-08-02T10:19:09;2.50;;;0.80;;
57023;SDS011;42916;54.346;18.562;2022-08-02T10:24:20;10.20;;;1.30;;
57023;SDS011;42916;54.346;18.562;2022-08-02T10:26:50;5.00;;;1.50;;
57023;SDS011;42916;54.346;18.562;2022-08-02T10:29:19;3.30;;;0.90;;
57023;SDS011;42916;54.346;18.562;2022-08-02T10:31:50;3.50;;;0.80;;
57023;SDS011;42916;54.346;18.562;2022-08-02T10:34:23;3.90;;;1.00;;
57023;SDS011;42916;54.346;18.562;2022-08-02T10:36:55;7.50;;;1.10;;
57023;SDS011;42916;54.346;18.562;2022-08-02T10:39:22;4.50;;;1.20;;
57023;SDS011;42916;54.346;18.562;2022-08-02T10:41:50;4.20;;;1.00;;
57023;SDS011;42916;54.346;18.562;2022-08-02T10:54:54;3.30;;;1.00;;
57023;SDS011;42916;54.346;18.562;2022-08-02T10:57:24;6.10;;;1.10;;
57023;SDS011;42916;54.346;18.562;2022-08-02T11:02:43;3.20;;;0.90;;
57023;SDS011;42916;54.346;18.562;2022-08-02T11:05:15;3.70;;;0.90;;
57023;SDS011;42916;54.346;18.562;2022-08-02T11:07:56;5.90;;;1.00;;
57023;SDS011;42916;54.346;18.562;2022-08-02T11:10:30;5.20;;;0.90;;
57023;SDS011;42916;54.346;18.562;2022-08-02T11:13:00;4.50;;;0.90;;
57023;SDS011;42916;54.346;18.562;2022-08-02T11:15:27;6.80;;;1.10;;
57023;SDS011;42916;54.346;18.562;2022-08-02T11:17:55;5.30;;;0.90;;
57023;SDS011;42916;54.346;18.562;2022-08-02T11:20:26;3.90;;;1.00;;
57023;SDS011;42916;54.346;18.562;2022-08-02T11:22:54;6.80;;;1.80;;
57023;SDS011;42916;54.346;18.562;2022-08-02T11:25:40;3.10;;;0.80;;
57023;SDS011;42916;54.346;18.562;2022-08-02T11:28:08;3.10;;;0.90;;
57023;SDS011;42916;54.346;18.562;2022-08-02T11:30:36;3.00;;;1.20;;
57023;SDS011;42916;54.346;18.562;2022-08-02T11:33:04;5.00;;;1.00;;
57023;SDS011;42916;54.346;18.562;2022-08-02T11:35:39;7.60;;;1.30;;
57023;SDS011;42916;54.346;18.562;2022-08-02T11:38:16;9.20;;;0.90;;
57023;SDS011;42916;54.346;18.562;2022-08-02T11:40:45;5.40;;;1.60;;
57023;SDS011;42916;54.346;18.562;2022-08-02T11:43:19;5.90;;;1.60;;
57023;SDS011;42916;54.346;18.562;2022-08-02T11:45:52;8.00;;;1.90;;
57023;SDS011;42916;54.346;18.562;2022-08-02T11:48:34;8.80;;;1.70;;
57023;SDS011;42916;54.346;18.562;2022-08-02T11:53:43;8.60;;;2.20;;
57023;SDS011;42916;54.346;18.562;2022-08-02T11:58:40;7.40;;;1.90;;
57023;SDS011;42916;54.346;18.562;2022-08-02T12:01:06;10.50;;;2.10;;
57023;SDS011;42916;54.346;18.562;2022-08-02T12:03:34;11.60;;;2.30;;
57023;SDS011;42916;54.346;18.562;2022-08-02T12:06:02;10.70;;;2.30;;
57023;SDS011;42916;54.346;18.562;2022-08-02T12:08:31;10.70;;;2.20;;
57023;SDS011;42916;54.346;18.562;2022-08-02T12:11:01;7.70;;;1.90;;
57023;SDS011;42916;54.346;18.562;2022-08-02T12:13:40;7.20;;;1.50;;
57023;SDS011;42916;54.346;18.562;2022-08-02T12:16:09;3.90;;;1.60;;
57023;SDS011;42916;54.346;18.562;2022-08-02T12:18:58;7.70;;;1.60;;
57023;SDS011;42916;54.346;18.562;2022-08-02T12:21:43;10.90;;;2.00;;
57023;SDS011;42916;54.346;18.562;2022-08-02T12:24:11;7.00;;;1.30;;
57023;SDS011;42916;54.346;18.562;2022-08-02T12:26:44;7.10;;;1.50;;
57023;SDS011;42916;54.346;18.562;2022-08-02T12:29:12;4.80;;;1.20;;
57023;SDS011;42916;54.346;18.562;2022-08-02T12:31:40;5.20;;;1.40;;
57023;SDS011;42916;54.346;18.562;2022-08-02T12:34:10;7.90;;;1.40;;
57023;SDS011;42916;54.346;18.562;2022-08-02T12:36:40;6.40;;;1.20;;
57023;SDS011;42916;54.346;18.562;2022-08-02T12:39:10;7.10;;;1.30;;
57023;SDS011;42916;54.346;18.562;2022-08-02T12:41:39;6.20;;;1.50;;
57023;SDS011;42916;54.346;18.562;2022-08-02T12:44:13;8.30;;;1.30;;
57023;SDS011;42916;54.346;18.562;2022-08-02T12:46:41;6.60;;;1.40;;
57023;SDS011;42916;54.346;18.562;2022-08-02T12:49:15;6.40;;;1.20;;
57023;SDS011;42916;54.346;18.562;2022-08-02T12:51:43;8.10;;;1.60;;
57023;SDS011;42916;54.346;18.562;2022-08-02T12:54:11;5.70;;;1.30;;
57023;SDS011;42916;54.346;18.562;2022-08-02T12:56:49;7.70;;;1.00;;
57023;SDS011;42916;54.346;18.562;2022-08-02T12:59:16;4.60;;;1.30;;
57023;SDS011;42916;54.346;18.562;2022-08-02T13:02:00;12.50;;;1.60;;
57023;SDS011;42916;54.346;18.562;2022-08-02T13:04:31;6.00;;;1.30;;
57023;SDS011;42916;54.346;18.562;2022-08-02T13:06:58;7.30;;;1.40;;
57023;SDS011;42916;54.346;18.562;2022-08-02T13:09:25;6.50;;;1.00;;
57023;SDS011;42916;54.346;18.562;2022-08-02T13:11:52;3.80;;;1.20;;
57023;SDS011;42916;54.346;18.562;2022-08-02T13:14:18;6.30;;;1.00;;
57023;SDS011;42916;54.346;18.562;2022-08-02T13:16:45;6.30;;;1.30;;
57023;SDS011;42916;54.346;18.562;2022-08-02T13:19:12;6.70;;;1.40;;
57023;SDS011;42916;54.346;18.562;2022-08-02T13:21:41;9.80;;;1.30;;
57023;SDS011;42916;54.346;18.562;2022-08-02T13:26:36;4.90;;;1.00;;
57023;SDS011;42916;54.346;18.562;2022-08-02T13:29:03;6.70;;;1.30;;
57023;SDS011;42916;54.346;18.562;2022-08-02T13:31:29;3.80;;;1.10;;
57023;SDS011;42916;54.346;18.562;2022-08-02T13:33:59;4.00;;;1.20;;
57023;SDS011;42916;54.346;18.562;2022-08-02T13:36:25;3.90;;;1.00;;
57023;SDS011;42916;54.346;18.562;2022-08-02T13:38:52;4.80;;;1.20;;
57023;SDS011;42916;54.346;18.562;2022-08-02T13:41:18;7.50;;;1.00;;
57023;SDS011;42916;54.346;18.562;2022-08-02T13:43:45;6.70;;;1.30;;
57023;SDS011;42916;54.346;18.562;2022-08-02T13:46:11;12.60;;;1.50;;
57023;SDS011;42916;54.346;18.562;2022-08-02T13:48:38;6.00;;;1.20;;
57023;SDS011;42916;54.346;18.562;2022-08-02T13:51:04;6.00;;;1.60;;
57023;SDS011;42916;54.346;18.562;2022-08-02T13:53:37;7.00;;;1.60;;
57023;SDS011;42916;54.346;18.562;2022-08-02T13:56:04;6.20;;;1.40;;
57023;SDS011;42916;54.346;18.562;2022-08-02T13:58:31;4.50;;;1.40;;
57023;SDS011;42916;54.346;18.562;2022-08-02T14:00:58;5.90;;;1.30;;
57023;SDS011;42916;54.346;18.562;2022-08-02T14:03:24;6.60;;;1.40;;
57023;SDS011;42916;54.346;18.562;2022-08-02T14:05:51;4.60;;;1.00;;
57023;SDS011;42916;54.346;18.562;2022-08-02T14:08:19;6.70;;;1.30;;
57023;SDS011;42916;54.346;18.562;2022-08-02T14:10:48;6.50;;;1.00;;
57023;SDS011;42916;54.346;18.562;2022-08-02T14:13:16;6.00;;;1.10;;
57023;SDS011;42916;54.346;18.562;2022-08-02T14:18:10;7.60;;;1.30;;
57023;SDS011;42916;54.346;18.562;2022-08-02T14:20:37;6.00;;;1.40;;
57023;SDS011;42916;54.346;18.562;2022-08-02T14:23:04;3.90;;;1.10;;
57023;SDS011;42916;54.346;18.562;2022-08-02T14:25:30;5.80;;;1.40;;
57023;SDS011;42916;54.346;18.562;2022-08-02T14:27:57;7.30;;;1.20;;
57023;SDS011;42916;54.346;18.562;2022-08-02T14:30:24;4.40;;;1.00;;
57023;SDS011;42916;54.346;18.562;2022-08-02T14:32:50;4.10;;;1.10;;
57023;SDS011;42916;54.346;18.562;2022-08-02T14:35:17;5.20;;;1.00;;
57023;SDS011;42916;54.346;18.562;2022-08-02T14:37:43;4.30;;;1.10;;
57023;SDS011;42916;54.346;18.562;2022-08-02T14:40:10;7.30;;;1.60;;
57023;SDS011;42916;54.346;18.562;2022-08-02T14:42:38;9.00;;;1.30;;
57023;SDS011;42916;54.346;18.562;2022-08-02T14:45:05;8.00;;;1.60;;
57023;SDS011;42916;54.346;18.562;2022-08-02T14:47:32;6.10;;;1.40;;
57023;SDS011;42916;54.346;18.562;2022-08-02T14:49:59;6.20;;;1.20;;
57023;SDS011;42916;54.346;18.562;2022-08-02T14:52:25;6.70;;;1.30;;
57023;SDS011;42916;54.346;18.562;2022-08-02T14:54:52;8.20;;;1.50;;
57023;SDS011;42916;54.346;18.562;2022-08-02T14:57:19;6.30;;;1.20;;
57023;SDS011;42916;54.346;18.562;2022-08-02T14:59:45;8.00;;;1.20;;
57023;SDS011;42916;54.346;18.562;2022-08-02T15:02:12;5.90;;;1.10;;
57023;SDS011;42916;54.346;18.562;2022-08-02T15:04:39;9.00;;;1.40;;
57023;SDS011;42916;54.346;18.562;2022-08-02T15:07:05;8.60;;;1.50;;
57023;SDS011;42916;54.346;18.562;2022-08-02T15:09:32;9.30;;;1.20;;
57023;SDS011;42916;54.346;18.562;2022-08-02T15:11:59;7.30;;;1.30;;
57023;SDS011;42916;54.346;18.562;2022-08-02T15:14:25;6.20;;;1.00;;
57023;SDS011;42916;54.346;18.562;2022-08-02T15:16:53;10.20;;;1.20;;
57023;SDS011;42916;54.346;18.562;2022-08-02T15:19:20;9.50;;;1.20;;
57023;SDS011;42916;54.346;18.562;2022-08-02T15:21:46;9.20;;;1.40;;
57023;SDS011;42916;54.346;18.562;2022-08-02T15:24:13;5.80;;;1.10;;
57023;SDS011;42916;54.346;18.562;2022-08-02T15:26:39;6.50;;;1.40;;